createdAt,value
2023-04-16T00:00:28.567Z,34.45
2023-04-16T00:01:29.996Z,31.80
2023-04-16T00:02:31.565Z,32.75
2023-04-16T00:03:33.669Z,35.42
2023-04-16T00:04:35.572Z,33.28
2023-04-16T00:05:37.131Z,35.30
2023-04-16T00:06:38.574Z,40.33
2023-04-16T00:07:40.935Z,38.47
2023-04-16T00:08:43.526Z,32.38
2023-04-16T00:09:44.961Z,33.42
2023-04-16T00:10:46.434Z,34.08
2023-04-16T00:11:47.848Z,29.45
2023-04-16T00:12:49.265Z,27.75
2023-04-16T00:13:50.714Z,29.65
2023-04-16T00:14:52.118Z,32.47
2023-04-16T00:15:53.565Z,28.70
2023-04-16T00:16:54.995Z,31.52
2023-04-16T00:17:56.519Z,30.95
2023-04-16T00:18:57.965Z,30.63
2023-04-16T00:19:59.437Z,31.20
2023-04-16T00:21:00.891Z,33.53
2023-04-16T00:22:02.389Z,35.20
2023-04-16T00:23:03.860Z,35.13
2023-04-16T00:24:05.343Z,36.65
2023-04-16T00:25:07.009Z,35.38
2023-04-16T00:26:09.190Z,33.53
2023-04-16T00:27:10.725Z,32.28
2023-04-16T00:28:12.196Z,32.85
2023-04-16T00:29:13.619Z,34.70
2023-04-16T00:30:15.032Z,35.22
2023-04-16T00:31:16.504Z,34.63
2023-04-16T00:32:18.022Z,38.78
2023-04-16T00:33:19.524Z,35.80
2023-04-16T00:34:20.985Z,34.78
2023-04-16T00:35:22.443Z,30.55
2023-04-16T00:36:24.819Z,33.90
2023-04-16T00:37:26.269Z,32.78
2023-04-16T00:38:30.331Z,32.83
2023-04-16T00:39:31.891Z,34.25
2023-04-16T00:40:33.308Z,36.38
2023-04-16T00:41:34.783Z,32.88
2023-04-16T00:42:37.036Z,32.85
2023-04-16T00:43:38.421Z,35.65
2023-04-16T00:44:39.854Z,35.60
2023-04-16T00:45:41.289Z,39.05
2023-04-16T00:46:43.091Z,34.88
2023-04-16T00:47:45.179Z,36.03
2023-04-16T00:48:47.291Z,37.33
2023-04-16T00:49:49.097Z,33.95
2023-04-16T00:50:50.602Z,30.73
2023-04-16T00:51:52.099Z,35.05
2023-04-16T00:52:53.542Z,35.75
2023-04-16T00:53:55.338Z,35.58
2023-04-16T00:57:27.968Z,35.50
2023-04-16T00:58:30.388Z,33.65
2023-04-16T00:59:32.505Z,32.00
2023-04-16T01:01:35.288Z,37.25
2023-04-16T01:02:37.290Z,38.03
2023-04-16T01:03:43.730Z,37.47
2023-04-16T01:04:45.443Z,40.17
2023-04-16T01:05:49.286Z,35.22
2023-04-16T01:06:51.104Z,35.83
2023-04-16T01:07:52.572Z,37.47
2023-04-16T01:08:54.037Z,38.25
2023-04-16T01:09:56.251Z,40.20
2023-04-16T01:10:57.723Z,42.55
2023-04-16T01:11:59.157Z,36.70
2023-04-16T01:13:00.614Z,36.50
2023-04-16T01:14:02.017Z,36.47
2023-04-16T01:15:03.907Z,35.90
2023-04-16T01:16:09.672Z,34.35
2023-04-16T01:17:11.164Z,36.15
2023-04-16T01:18:20.411Z,35.45
2023-04-16T01:19:21.801Z,32.80
2023-04-16T01:20:23.306Z,34.83
2023-04-16T01:21:24.698Z,34.60
2023-04-16T01:22:29.976Z,34.50
2023-04-16T01:23:31.654Z,35.80
2023-04-16T01:24:33.960Z,34.70
2023-04-16T01:25:35.440Z,39.10
2023-04-16T01:26:36.861Z,33.85
2023-04-16T01:27:38.268Z,34.67
2023-04-16T01:28:40.461Z,33.47
2023-04-16T01:29:41.918Z,35.40
2023-04-16T01:30:43.537Z,37.55
2023-04-16T01:31:46.700Z,37.53
2023-04-16T01:32:48.424Z,33.17
2023-04-16T01:33:49.870Z,33.33
2023-04-16T01:34:51.274Z,37.53
2023-04-16T01:35:52.810Z,36.22
2023-04-16T01:36:54.296Z,36.70
2023-04-16T01:37:55.817Z,36.70
2023-04-16T01:38:57.244Z,37.38
2023-04-16T01:39:58.668Z,34.75
2023-04-16T01:41:00.251Z,35.72
2023-04-16T01:42:02.284Z,41.05
2023-04-16T01:44:05.358Z,37.17
2023-04-16T01:45:07.311Z,39.75
2023-04-16T01:47:33.368Z,37.00
2023-04-16T01:48:34.914Z,38.65
2023-04-16T01:49:36.631Z,41.42
2023-04-16T01:50:38.110Z,44.53
2023-04-16T01:51:39.480Z,39.03
2023-04-16T01:52:40.956Z,40.42
2023-04-16T01:53:42.369Z,44.70
2023-04-16T01:54:43.756Z,43.53
2023-04-16T01:55:45.230Z,45.28
2023-04-16T01:56:46.689Z,40.92
2023-04-16T01:57:48.124Z,40.60
2023-04-16T01:58:49.820Z,45.53
2023-04-16T01:59:51.240Z,41.85
2023-04-16T02:00:52.933Z,42.00
2023-04-16T02:01:54.553Z,36.92
2023-04-16T02:02:56.281Z,37.00
2023-04-16T02:03:58.185Z,37.33
2023-04-16T02:04:59.690Z,40.50
2023-04-16T02:06:03.861Z,36.17
2023-04-16T02:07:05.957Z,35.35
2023-04-16T02:08:07.494Z,36.83
2023-04-16T02:09:09.122Z,38.75
2023-04-16T02:10:10.788Z,37.00
2023-04-16T02:11:12.167Z,35.15
2023-04-16T02:12:13.732Z,35.40
2023-04-16T02:13:16.555Z,36.80
2023-04-16T02:14:18.033Z,36.47
2023-04-16T02:15:19.454Z,36.35
2023-04-16T02:16:20.905Z,40.13
2023-04-16T02:17:22.393Z,41.95
2023-04-16T02:18:23.866Z,38.05
2023-04-16T02:19:25.462Z,39.85
2023-04-16T02:20:26.915Z,40.58
2023-04-16T02:21:28.446Z,37.28
2023-04-16T02:22:29.921Z,37.80
2023-04-16T02:23:31.425Z,39.35
2023-04-16T02:24:33.011Z,35.92
2023-04-16T02:25:40.692Z,39.25
2023-04-16T02:26:42.142Z,39.33
2023-04-16T02:27:43.550Z,38.47
2023-04-16T02:28:45.003Z,38.67
2023-04-16T02:29:46.600Z,40.78
2023-04-16T02:30:48.089Z,38.35
2023-04-16T02:31:49.870Z,38.47
2023-04-16T02:32:51.338Z,39.22
2023-04-16T02:33:52.759Z,38.05
2023-04-16T02:34:54.829Z,41.05
2023-04-16T02:35:56.252Z,42.15
2023-04-16T02:36:58.348Z,39.78
2023-04-16T02:37:59.843Z,40.80
2023-04-16T02:39:01.461Z,39.88
2023-04-16T02:40:02.905Z,43.20
2023-04-16T02:41:04.369Z,39.33
2023-04-16T02:42:05.852Z,41.25
2023-04-16T02:43:07.282Z,39.05
2023-04-16T02:44:08.671Z,40.72
2023-04-16T02:45:11.487Z,41.33
2023-04-16T02:46:13.025Z,41.95
2023-04-16T02:47:14.456Z,40.30
2023-04-16T02:48:15.966Z,41.00
2023-04-16T02:49:17.404Z,36.53
2023-04-16T02:50:18.972Z,39.33
2023-04-16T02:51:20.541Z,41.30
2023-04-16T02:52:21.921Z,36.50
2023-04-16T02:53:23.345Z,41.58
2023-04-16T02:54:24.806Z,49.20
2023-04-16T02:55:26.280Z,40.63
2023-04-16T02:56:27.712Z,41.28
2023-04-16T02:57:29.314Z,39.45
2023-04-16T02:58:30.785Z,38.67
2023-04-16T02:59:32.206Z,37.28
2023-04-16T03:00:33.624Z,40.08
2023-04-16T03:01:35.104Z,38.78
2023-04-16T03:02:36.807Z,39.33
2023-04-16T03:03:38.286Z,38.95
2023-04-16T03:04:39.784Z,41.53
2023-04-16T03:05:41.544Z,39.25
2023-04-16T03:06:42.934Z,40.65
2023-04-16T03:07:44.365Z,43.65
2023-04-16T03:08:45.793Z,41.25
2023-04-16T03:09:47.345Z,42.00
2023-04-16T03:10:48.785Z,43.25
2023-04-16T03:11:50.234Z,39.67
2023-04-16T03:12:51.676Z,43.13
2023-04-16T03:13:53.778Z,43.88
2023-04-16T03:14:55.341Z,40.72
2023-04-16T03:15:56.857Z,41.33
2023-04-16T03:16:58.830Z,43.42
2023-04-16T03:18:00.511Z,43.00
2023-04-16T03:19:02.035Z,46.47
2023-04-16T03:20:05.013Z,42.72
2023-04-16T03:21:06.454Z,42.55
2023-04-16T03:22:07.908Z,42.75
2023-04-16T03:23:09.486Z,38.40
2023-04-16T03:24:11.406Z,40.38
2023-04-16T03:25:13.554Z,40.70
2023-04-16T03:26:14.975Z,39.80
2023-04-16T03:27:16.376Z,42.55
2023-04-16T03:28:17.863Z,46.75
2023-04-16T03:29:19.360Z,42.05
2023-04-16T03:30:20.766Z,41.63
2023-04-16T03:31:24.535Z,43.60
2023-04-16T03:32:26.077Z,44.30
2023-04-16T03:33:27.539Z,45.00
2023-04-16T03:34:28.938Z,40.85
2023-04-16T03:35:30.382Z,46.88
2023-04-16T03:36:32.544Z,45.25
2023-04-16T03:37:34.552Z,42.20
2023-04-16T03:39:37.616Z,43.10
2023-04-16T03:40:39.133Z,42.30
2023-04-16T03:41:40.555Z,43.22
2023-04-16T03:42:42.277Z,45.03
2023-04-16T03:43:43.780Z,43.22
2023-04-16T03:44:45.307Z,47.60
2023-04-16T03:45:47.325Z,51.03
2023-04-16T03:47:52.729Z,51.20
2023-04-16T03:48:54.354Z,52.83
2023-04-16T03:49:55.775Z,50.70
2023-04-16T03:50:57.171Z,54.38
2023-04-16T03:51:58.545Z,53.20
2023-04-16T03:52:59.970Z,53.67
2023-04-16T03:54:01.415Z,51.75
2023-04-16T03:55:04.012Z,58.05
2023-04-16T03:56:05.629Z,54.92
2023-04-16T03:57:07.046Z,60.72
2023-04-16T03:58:08.690Z,58.38
2023-04-16T03:59:10.826Z,53.90
2023-04-16T04:00:12.522Z,54.00
2023-04-16T04:01:13.950Z,58.00
2023-04-16T04:02:15.474Z,58.80
2023-04-16T04:03:17.927Z,60.35
2023-04-16T04:04:19.616Z,58.47
2023-04-16T04:05:21.193Z,59.47
2023-04-16T04:06:22.701Z,57.53
2023-04-16T04:07:24.204Z,60.20
2023-04-16T04:08:26.177Z,64.07
2023-04-16T04:10:28.910Z,53.25
2023-04-16T04:11:30.591Z,55.22
2023-04-16T04:12:31.986Z,62.53
2023-04-16T04:13:33.391Z,57.92
2023-04-16T04:14:39.615Z,56.58
2023-04-16T04:15:41.006Z,57.42
2023-04-16T04:16:42.443Z,63.92
2023-04-16T04:17:44.030Z,58.58
2023-04-16T04:18:45.552Z,60.95
2023-04-16T04:19:58.170Z,56.85
2023-04-16T04:21:07.173Z,58.90
2023-04-16T04:22:08.595Z,63.75
2023-04-16T04:23:10.032Z,64.57
2023-04-16T04:24:11.411Z,66.53
2023-04-16T04:25:13.021Z,67.90
2023-04-16T04:26:14.519Z,68.15
2023-04-16T04:27:15.971Z,65.57
2023-04-16T04:28:17.439Z,63.35
2023-04-16T04:29:18.867Z,61.30
2023-04-16T04:30:21.472Z,57.97
2023-04-16T04:31:22.943Z,61.38
2023-04-16T04:32:24.401Z,62.65
2023-04-16T04:33:26.374Z,58.97
2023-04-16T04:35:29.158Z,51.25
2023-04-16T04:36:30.944Z,57.47
2023-04-16T04:37:32.407Z,64.18
2023-04-16T04:38:33.916Z,58.30
2023-04-16T04:39:35.430Z,64.57
2023-04-16T04:40:36.858Z,62.78
2023-04-16T04:41:38.267Z,62.72
2023-04-16T04:42:39.704Z,61.05
2023-04-16T04:43:41.175Z,63.08
2023-04-16T04:44:42.586Z,59.90
2023-04-16T04:45:44.149Z,58.50
2023-04-16T04:46:45.810Z,57.63
2023-04-16T04:47:47.267Z,53.83
2023-04-16T04:48:48.778Z,56.75
2023-04-16T04:49:50.364Z,55.97
2023-04-16T04:50:52.098Z,53.88
2023-04-16T04:51:53.493Z,54.90
2023-04-16T04:52:55.021Z,57.03
2023-04-16T04:53:56.428Z,55.63
2023-04-16T04:54:57.808Z,53.90
2023-04-16T04:56:10.960Z,54.22
2023-04-16T04:57:13.400Z,57.42
2023-04-16T04:58:14.862Z,52.80
2023-04-16T04:59:16.283Z,51.08
2023-04-16T05:00:17.720Z,51.63
2023-04-16T05:01:19.185Z,53.30
2023-04-16T05:02:20.780Z,58.40
2023-04-16T05:03:22.609Z,54.00
2023-04-16T05:04:24.121Z,52.65
2023-04-16T05:05:25.576Z,57.75
2023-04-16T05:06:29.082Z,55.80
2023-04-16T05:07:31.605Z,55.50
2023-04-16T05:09:34.480Z,50.75
2023-04-16T05:10:35.889Z,50.47
2023-04-16T05:11:41.948Z,52.65
2023-04-16T05:12:43.380Z,53.25
2023-04-16T05:13:44.789Z,54.67
2023-04-16T05:14:46.187Z,59.15
2023-04-16T05:15:47.700Z,63.92
2023-04-16T05:16:49.146Z,58.47
2023-04-16T05:17:50.679Z,53.40
2023-04-16T05:18:52.338Z,59.55
2023-04-16T05:19:53.765Z,60.75
2023-04-16T05:20:55.811Z,58.97
2023-04-16T05:22:58.588Z,54.17
2023-04-16T05:24:00.329Z,53.00
2023-04-16T05:25:01.824Z,54.65
2023-04-16T05:26:03.266Z,58.63
2023-04-16T05:27:04.651Z,53.65
2023-04-16T05:28:06.045Z,58.33
2023-04-16T05:29:07.727Z,57.17
2023-04-16T05:30:09.845Z,52.85
2023-04-16T05:32:12.642Z,50.97
2023-04-16T05:33:14.128Z,55.35
2023-04-16T05:34:15.630Z,56.42
2023-04-16T05:35:17.633Z,51.60
2023-04-16T05:36:19.257Z,54.42
2023-04-16T05:37:20.709Z,54.45
2023-04-16T05:38:22.154Z,53.00
2023-04-16T05:39:23.561Z,56.22
2023-04-16T05:40:25.006Z,55.65
2023-04-16T05:41:26.426Z,55.88
2023-04-16T05:42:28.069Z,53.70
2023-04-16T05:43:29.526Z,58.78
2023-04-16T05:44:31.116Z,52.92
2023-04-16T05:45:33.385Z,53.80
2023-04-16T05:46:35.005Z,54.63
2023-04-16T05:47:36.480Z,52.95
2023-04-16T05:48:37.918Z,53.60
2023-04-16T05:49:39.334Z,48.63
2023-04-16T05:50:40.886Z,49.17
2023-04-16T05:51:42.344Z,44.88
2023-04-16T05:52:43.768Z,47.15
2023-04-16T05:53:45.404Z,46.55
2023-04-16T05:54:46.872Z,53.90
2023-04-16T05:55:48.263Z,47.42
2023-04-16T05:56:49.673Z,53.20
2023-04-16T05:57:51.087Z,49.00
2023-04-16T05:58:52.550Z,51.50
2023-04-16T05:59:53.959Z,46.95
2023-04-16T06:00:55.432Z,53.42
2023-04-16T06:01:57.528Z,53.40
2023-04-16T06:02:59.266Z,56.05
2023-04-16T06:04:01.197Z,56.03
2023-04-16T06:05:02.859Z,48.70
2023-04-16T06:06:04.466Z,54.00
2023-04-16T06:07:06.194Z,47.75
2023-04-16T06:08:07.658Z,52.20
2023-04-16T06:09:09.270Z,47.90
2023-04-16T06:10:11.004Z,48.92
2023-04-16T06:11:12.512Z,47.92
2023-04-16T06:12:13.997Z,44.53
2023-04-16T06:13:15.414Z,41.63
2023-04-16T06:14:16.855Z,47.80
2023-04-16T06:15:18.372Z,49.70
2023-04-16T06:16:19.864Z,49.00
2023-04-16T06:17:21.350Z,44.15
2023-04-16T06:18:23.677Z,48.25
2023-04-16T06:19:25.074Z,45.72
2023-04-16T06:20:26.600Z,41.33
2023-04-16T06:21:28.867Z,44.30
2023-04-16T06:22:30.446Z,39.00
2023-04-16T06:23:31.953Z,43.38
2023-04-16T06:24:34.544Z,43.22
2023-04-16T06:25:36.162Z,47.42
2023-04-16T06:26:37.591Z,49.58
2023-04-16T06:27:39.273Z,48.95
2023-04-16T06:28:40.667Z,45.53
2023-04-16T06:29:42.133Z,43.05
2023-04-16T06:30:44.725Z,44.90
2023-04-16T06:31:46.400Z,42.88
2023-04-16T06:32:48.073Z,39.50
2023-04-16T06:33:49.589Z,44.25
2023-04-16T06:34:51.434Z,45.58
2023-04-16T06:35:52.875Z,39.22
2023-04-16T06:36:54.300Z,36.53
2023-04-16T06:37:55.684Z,42.80
2023-04-16T06:38:57.088Z,39.85
2023-04-16T06:39:58.523Z,39.25
2023-04-16T06:41:00.157Z,42.22
2023-04-16T06:42:01.725Z,40.53
2023-04-16T06:43:03.481Z,43.33
2023-04-16T06:44:05.042Z,43.83
2023-04-16T06:45:07.240Z,44.20
2023-04-16T06:46:08.684Z,43.67
2023-04-16T06:47:10.319Z,41.60
2023-04-16T06:48:11.814Z,40.50
2023-04-16T06:49:13.229Z,39.05
2023-04-16T06:50:14.805Z,44.70
2023-04-16T06:51:16.406Z,44.97
2023-04-16T06:52:17.827Z,42.63
2023-04-16T06:53:19.277Z,45.70
2023-04-16T06:54:20.901Z,42.35
2023-04-16T06:55:22.369Z,38.13
2023-04-16T06:56:23.811Z,42.22
2023-04-16T06:57:25.403Z,41.72
2023-04-16T06:58:27.371Z,42.85
2023-04-16T07:00:30.392Z,40.13
2023-04-16T07:01:31.948Z,40.08
2023-04-16T07:02:33.567Z,41.92
2023-04-16T07:03:35.359Z,44.50
2023-04-16T07:04:37.223Z,43.47
2023-04-16T07:05:38.663Z,42.67
2023-04-16T07:06:40.125Z,44.53
2023-04-16T07:07:41.607Z,43.72
2023-04-16T07:08:42.990Z,45.00
2023-04-16T07:09:44.394Z,41.92
2023-04-16T07:10:45.940Z,44.10
2023-04-16T07:11:47.409Z,39.15
2023-04-16T07:12:48.934Z,41.67
2023-04-16T07:13:51.206Z,38.10
2023-04-16T07:14:52.913Z,36.63
2023-04-16T07:15:54.559Z,37.17
2023-04-16T07:16:56.058Z,40.20
2023-04-16T07:17:57.569Z,44.50
2023-04-16T07:18:59.194Z,36.58
2023-04-16T07:20:00.697Z,37.90
2023-04-16T07:21:02.220Z,40.70
2023-04-16T07:22:04.374Z,39.03
2023-04-16T07:23:06.091Z,36.22
2023-04-16T07:24:07.521Z,34.47
2023-04-16T07:25:09.371Z,40.45
2023-04-16T07:26:11.814Z,39.17
2023-04-16T07:27:13.236Z,38.00
2023-04-16T07:28:17.080Z,39.10
2023-04-16T07:29:18.611Z,33.17
2023-04-16T07:30:20.070Z,35.90
2023-04-16T07:31:21.555Z,37.30
2023-04-16T07:32:23.094Z,37.70
2023-04-16T07:33:24.616Z,39.17
2023-04-16T07:34:26.157Z,36.28
2023-04-16T07:35:27.781Z,37.80
2023-04-16T07:36:29.307Z,34.55
2023-04-16T07:37:30.915Z,37.03
2023-04-16T07:38:32.403Z,34.33
2023-04-16T07:39:33.797Z,33.60
2023-04-16T07:40:37.477Z,36.72
2023-04-16T07:41:40.637Z,35.92
2023-04-16T07:42:43.089Z,34.95
2023-04-16T07:43:44.501Z,34.45
2023-04-16T07:44:46.049Z,35.40
2023-04-16T07:45:47.473Z,40.08
2023-04-16T07:46:48.958Z,34.92
2023-04-16T07:47:50.721Z,33.72
2023-04-16T07:48:52.223Z,37.10
2023-04-16T07:49:53.755Z,34.50
2023-04-16T07:50:55.588Z,34.83
2023-04-16T07:51:57.082Z,30.88
2023-04-16T07:52:58.596Z,33.00
2023-04-16T07:54:00.043Z,33.45
2023-04-16T07:55:01.489Z,35.55
2023-04-16T07:56:02.960Z,33.67
2023-04-16T07:57:04.330Z,33.95
2023-04-16T07:58:07.225Z,36.72
2023-04-16T08:00:16.450Z,38.83
2023-04-16T08:01:17.920Z,38.03
2023-04-16T08:02:19.474Z,33.90
2023-04-16T08:03:21.197Z,36.15
2023-04-16T08:04:25.494Z,36.60
2023-04-16T08:05:27.577Z,35.30
2023-04-16T08:06:29.015Z,38.95
2023-04-16T08:07:30.458Z,32.45
2023-04-16T08:08:32.051Z,33.47
2023-04-16T08:09:34.770Z,37.83
2023-04-16T08:10:36.229Z,38.40
2023-04-16T08:11:37.663Z,35.10
2023-04-16T08:12:39.362Z,37.58
2023-04-16T08:13:41.203Z,34.42
2023-04-16T08:14:42.753Z,33.83
2023-04-16T08:15:44.250Z,33.40
2023-04-16T08:16:45.780Z,35.03
2023-04-16T08:17:47.251Z,36.45
2023-04-16T08:18:48.829Z,39.05
2023-04-16T08:19:50.313Z,33.72
2023-04-16T08:20:51.831Z,34.08
2023-04-16T08:21:53.286Z,31.88
2023-04-16T08:22:54.895Z,29.92
2023-04-16T08:23:56.413Z,28.15
2023-04-16T08:24:57.847Z,29.50
2023-04-16T08:25:59.360Z,28.48
2023-04-16T08:27:11.538Z,34.15
2023-04-16T08:28:19.027Z,31.40
2023-04-16T08:29:20.966Z,32.58
2023-04-16T08:31:24.509Z,29.15
2023-04-16T08:32:27.081Z,29.55
2023-04-16T08:33:28.647Z,30.70
2023-04-16T08:34:30.147Z,29.52
2023-04-16T08:35:31.598Z,31.88
2023-04-16T08:36:33.041Z,27.98
2023-04-16T08:37:34.466Z,31.05
2023-04-16T08:38:35.871Z,27.70
2023-04-16T08:39:37.665Z,28.52
2023-04-16T08:40:41.611Z,29.17
2023-04-16T08:41:46.311Z,32.22
2023-04-16T08:42:57.897Z,28.45
2023-04-16T08:44:04.780Z,32.30
2023-04-16T08:45:15.871Z,30.95
2023-04-16T08:46:17.863Z,33.20
2023-04-16T08:48:22.864Z,30.30
2023-04-16T08:49:25.983Z,33.55
2023-04-16T08:50:28.245Z,33.58
2023-04-16T08:51:32.541Z,33.38
2023-04-16T08:52:37.702Z,31.88
2023-04-16T08:54:03.164Z,33.33
2023-04-16T08:55:12.532Z,35.15
2023-04-16T08:56:15.808Z,36.40
2023-04-16T08:57:20.450Z,35.55
2023-04-16T08:58:22.788Z,36.78
2023-04-16T08:59:25.567Z,33.58
2023-04-16T09:00:29.266Z,32.55
2023-04-16T09:01:32.492Z,32.17
2023-04-16T09:02:34.775Z,30.48
2023-04-16T09:03:36.958Z,28.83
2023-04-16T09:04:39.624Z,31.63
2023-04-16T09:05:42.401Z,31.92
2023-04-16T09:06:45.960Z,35.60
2023-04-16T09:07:48.413Z,33.33
2023-04-16T09:08:50.361Z,34.13
2023-04-16T09:10:56.429Z,33.22
2023-04-16T09:11:57.845Z,30.00
2023-04-16T09:12:59.361Z,28.17
2023-04-16T09:14:01.500Z,30.52
2023-04-16T09:15:03.583Z,27.60
2023-04-16T09:16:07.202Z,27.48
2023-04-16T09:17:09.738Z,26.30
2023-04-16T09:18:12.233Z,29.10
2023-04-16T09:19:14.803Z,28.13
2023-04-16T09:20:16.267Z,27.05
2023-04-16T09:21:17.756Z,30.77
2023-04-16T09:22:19.251Z,29.98
2023-04-16T09:23:20.794Z,31.27
2023-04-16T09:24:22.756Z,30.13
2023-04-16T09:26:27.508Z,30.80
2023-04-16T09:27:30.829Z,30.30
2023-04-16T09:28:39.761Z,30.65
2023-04-16T09:29:41.829Z,32.22
2023-04-16T09:30:43.254Z,29.85
2023-04-16T09:32:03.206Z,25.98
2023-04-16T09:34:24.904Z,27.88
2023-04-16T09:35:26.390Z,27.73
2023-04-16T09:36:28.207Z,29.80
2023-04-16T09:37:30.867Z,32.30
2023-04-16T09:38:49.972Z,32.35
2023-04-16T09:39:58.320Z,31.45
2023-04-16T09:41:07.517Z,35.72
2023-04-16T09:42:09.396Z,33.70
2023-04-16T09:43:18.697Z,36.30
2023-04-16T09:44:20.259Z,35.80
2023-04-16T09:45:21.806Z,30.38
2023-04-16T09:46:25.129Z,33.03
2023-04-16T09:47:39.916Z,33.40
2023-04-16T09:48:41.514Z,30.67
2023-04-16T09:49:43.690Z,31.98
2023-04-16T09:50:51.716Z,33.97
2023-04-16T09:53:02.623Z,29.27
2023-04-16T09:54:07.761Z,36.05
2023-04-16T09:55:09.255Z,36.00
2023-04-16T09:56:12.752Z,29.35
2023-04-16T09:57:16.217Z,32.40
2023-04-16T09:58:20.991Z,28.17
2023-04-16T09:59:24.338Z,26.88
2023-04-16T10:00:26.082Z,26.90
2023-04-16T10:01:27.692Z,30.15
2023-04-16T10:02:30.008Z,25.98
2023-04-16T10:03:33.081Z,25.40
2023-04-16T10:04:54.791Z,25.70
2023-04-16T10:05:56.414Z,25.73
2023-04-16T10:07:05.884Z,26.77
2023-04-16T10:08:14.320Z,27.77
2023-04-16T10:09:16.111Z,27.42
2023-04-16T10:10:17.631Z,27.63
2023-04-16T10:11:20.510Z,24.92
2023-04-16T10:12:22.117Z,25.13
2023-04-16T10:13:27.717Z,27.42
2023-04-16T10:14:29.165Z,24.80
2023-04-16T10:15:31.126Z,25.02
2023-04-16T10:17:35.325Z,27.25
2023-04-16T10:18:42.130Z,29.48
2023-04-16T10:19:44.238Z,25.48
2023-04-16T10:20:46.002Z,26.63
2023-04-16T10:21:48.108Z,25.13
2023-04-16T10:22:49.978Z,24.10
2023-04-16T10:23:52.024Z,24.38
2023-04-16T10:24:54.690Z,24.17
2023-04-16T10:25:57.742Z,27.77
2023-04-16T10:27:00.130Z,24.73
2023-04-16T10:28:02.649Z,28.42
2023-04-16T10:29:06.426Z,26.00
2023-04-16T10:30:09.361Z,27.27
2023-04-16T10:31:11.789Z,30.45
2023-04-16T10:32:14.074Z,28.25
2023-04-16T10:33:15.695Z,28.50
2023-04-16T10:34:18.475Z,30.88
2023-04-16T10:35:21.433Z,26.30
2023-04-16T10:36:24.753Z,23.45
2023-04-16T10:37:31.266Z,27.15
2023-04-16T10:38:32.831Z,29.08
2023-04-16T10:39:39.050Z,28.70
2023-04-16T10:40:44.801Z,26.25
2023-04-16T10:41:46.762Z,26.73
2023-04-16T10:44:09.729Z,25.13
2023-04-16T10:45:11.513Z,25.13
2023-04-16T10:46:30.217Z,26.48
2023-04-16T10:47:31.813Z,25.60
2023-04-16T10:48:42.402Z,25.95
2023-04-16T10:49:50.947Z,22.95
2023-04-16T10:50:57.469Z,25.63
2023-04-16T10:52:02.184Z,25.88
2023-04-16T10:53:20.989Z,28.15
2023-04-16T10:54:28.107Z,27.50
2023-04-16T10:55:29.538Z,26.20
2023-04-16T10:56:35.367Z,26.58
2023-04-16T10:57:36.777Z,26.55
2023-04-16T10:58:38.368Z,28.58
2023-04-16T10:59:43.068Z,25.38
2023-04-16T11:00:51.684Z,24.70
2023-04-16T11:01:55.728Z,27.05
2023-04-16T11:02:57.399Z,28.42
2023-04-16T11:04:02.099Z,31.40
2023-04-16T11:05:04.003Z,32.30
2023-04-16T11:06:12.854Z,32.67
2023-04-16T11:07:17.304Z,28.92
2023-04-16T11:08:18.796Z,27.50
2023-04-16T11:09:41.990Z,31.88
2023-04-16T11:10:43.424Z,30.20
2023-04-16T11:11:45.005Z,29.35
2023-04-16T11:12:47.369Z,29.55
2023-04-16T11:13:48.893Z,28.38
2023-04-16T11:15:05.118Z,27.02
2023-04-16T11:16:06.949Z,29.45
2023-04-16T11:17:09.535Z,27.98
2023-04-16T11:18:11.186Z,26.05
2023-04-16T11:19:17.607Z,30.70
2023-04-16T11:20:23.938Z,25.88
2023-04-16T11:21:26.594Z,28.15
2023-04-16T11:22:28.099Z,27.38
2023-04-16T11:23:29.494Z,30.70
2023-04-16T11:24:34.173Z,30.30
2023-04-16T11:25:35.723Z,30.50
2023-04-16T11:26:37.129Z,31.67
2023-04-16T11:27:38.813Z,30.05
2023-04-16T11:28:40.411Z,31.25
2023-04-16T11:29:43.502Z,30.55
2023-04-16T11:30:46.158Z,31.05
2023-04-16T11:31:51.778Z,29.98
2023-04-16T11:32:53.532Z,30.15
2023-04-16T11:33:56.643Z,27.38
2023-04-16T11:34:59.801Z,37.53
2023-04-16T11:36:01.308Z,30.90
2023-04-16T11:37:02.916Z,29.35
2023-04-16T11:38:06.003Z,33.90
2023-04-16T11:39:07.525Z,32.38
2023-04-16T11:40:10.186Z,32.85
2023-04-16T11:41:11.657Z,31.77
2023-04-16T11:42:19.538Z,33.25
2023-04-16T11:44:25.301Z,31.05
2023-04-16T11:45:26.811Z,34.65
2023-04-16T11:46:43.153Z,33.15
2023-04-16T11:47:47.188Z,34.13
2023-04-16T11:48:53.899Z,31.67
2023-04-16T11:49:55.338Z,31.65
2023-04-16T11:50:59.581Z,32.50
2023-04-16T11:52:01.037Z,31.38
2023-04-16T11:53:06.284Z,30.60
2023-04-16T11:54:11.074Z,30.02
2023-04-16T11:55:13.422Z,34.58
2023-04-16T11:56:15.835Z,30.50
2023-04-16T11:57:24.490Z,30.38
2023-04-16T11:58:26.054Z,30.98
2023-04-16T12:00:35.022Z,32.33
2023-04-16T12:01:37.419Z,27.70
2023-04-16T12:02:45.942Z,29.02
2023-04-16T12:03:49.575Z,28.95
2023-04-16T12:04:51.762Z,26.27
2023-04-16T12:07:14.057Z,26.00
2023-04-16T12:08:30.184Z,24.65
2023-04-16T12:09:31.633Z,25.25
2023-04-16T12:10:35.323Z,23.30
2023-04-16T12:11:40.782Z,24.92
2023-04-16T12:12:42.235Z,29.60
2023-04-16T12:13:43.696Z,27.02
2023-04-16T12:14:51.618Z,24.30
2023-04-16T12:16:56.156Z,24.50
2023-04-16T12:18:08.061Z,24.35
2023-04-16T12:19:12.878Z,27.05
2023-04-16T12:20:15.863Z,26.73
2023-04-16T12:21:17.267Z,27.38
2023-04-16T12:22:28.352Z,25.38
2023-04-16T12:23:32.883Z,25.55
2023-04-16T12:24:36.826Z,25.58
2023-04-16T12:25:38.426Z,26.65
2023-04-16T12:26:44.696Z,22.35
2023-04-16T12:27:55.564Z,21.83
2023-04-16T12:29:14.570Z,23.42
2023-04-16T12:30:16.977Z,20.63
2023-04-16T12:31:20.284Z,23.05
2023-04-16T12:32:23.233Z,21.60
2023-04-16T12:33:24.895Z,20.95
2023-04-16T12:34:47.772Z,23.08
2023-04-16T12:35:47.743Z,21.38
2023-04-16T12:37:06.216Z,19.77
2023-04-16T12:38:07.734Z,18.60
2023-04-16T12:39:10.947Z,21.95
2023-04-16T12:40:12.512Z,22.60
2023-04-16T12:41:13.950Z,23.23
2023-04-16T12:42:15.569Z,23.50
2023-04-16T12:43:17.147Z,23.35
2023-04-16T12:44:18.555Z,22.80
2023-04-16T12:45:24.639Z,23.10
2023-04-16T12:46:26.045Z,24.63
2023-04-16T12:47:27.564Z,21.95
2023-04-16T12:48:29.050Z,25.60
2023-04-16T12:49:30.573Z,22.90
2023-04-16T12:50:32.599Z,24.52
2023-04-16T12:51:35.307Z,23.98
2023-04-16T12:52:36.856Z,23.58
2023-04-16T12:53:38.365Z,23.15
2023-04-16T12:54:39.858Z,22.58
2023-04-16T12:55:41.698Z,23.85
2023-04-16T12:56:43.094Z,21.23
2023-04-16T12:57:44.643Z,22.83
2023-04-16T12:58:46.290Z,21.80
2023-04-16T12:59:47.736Z,24.00
2023-04-16T13:00:49.295Z,19.92
2023-04-16T13:01:50.956Z,20.13
2023-04-16T13:02:52.550Z,23.65
2023-04-16T13:03:54.326Z,23.30
2023-04-16T13:04:55.950Z,22.63
2023-04-16T13:05:57.549Z,20.90
2023-04-16T13:06:59.434Z,23.17
2023-04-16T13:08:01.108Z,21.13
2023-04-16T13:09:02.607Z,25.27
2023-04-16T13:10:05.401Z,23.73
2023-04-16T13:11:07.921Z,24.23
2023-04-16T13:12:09.402Z,24.63
2023-04-16T13:13:10.991Z,22.67
2023-04-16T13:14:12.378Z,26.73
2023-04-16T13:15:13.893Z,25.52
2023-04-16T13:16:15.469Z,25.80
2023-04-16T13:17:16.917Z,25.60
2023-04-16T13:18:18.381Z,24.63
2023-04-16T13:19:19.932Z,24.85
2023-04-16T13:20:23.884Z,24.08
2023-04-16T13:21:27.160Z,26.80
2023-04-16T13:22:28.683Z,24.80
2023-04-16T13:23:30.528Z,26.50
2023-04-16T13:24:32.004Z,27.25
2023-04-16T13:25:33.468Z,22.73
2023-04-16T13:26:34.954Z,25.55
2023-04-16T13:27:36.364Z,25.35
2023-04-16T13:28:37.821Z,23.65
2023-04-16T13:29:39.263Z,25.08
2023-04-16T13:30:41.039Z,25.85
2023-04-16T13:31:42.565Z,27.40
2023-04-16T13:32:44.107Z,26.08
2023-04-16T13:33:45.728Z,25.77
2023-04-16T13:34:47.308Z,24.35
2023-04-16T13:35:49.855Z,24.15
2023-04-16T13:36:51.264Z,32.33
2023-04-16T13:37:53.174Z,26.38
2023-04-16T13:38:54.775Z,24.83
2023-04-16T13:39:56.627Z,23.08
2023-04-16T13:40:58.199Z,25.77
2023-04-16T13:42:00.129Z,24.13
2023-04-16T13:43:01.713Z,24.02
2023-04-16T13:44:03.309Z,29.05
2023-04-16T13:45:05.193Z,26.38
2023-04-16T13:46:06.792Z,27.75
2023-04-16T13:47:08.625Z,26.95
2023-04-16T13:48:10.230Z,27.38
2023-04-16T13:49:11.822Z,25.33
2023-04-16T13:50:13.459Z,24.30
2023-04-16T13:51:15.562Z,25.35
2023-04-16T13:52:17.115Z,25.90
2023-04-16T13:53:18.531Z,22.42
2023-04-16T13:54:19.974Z,22.73